Time;durP1;ratioP1;P1;durP2;ratioP2;P2;SDS_P1;SDS_P2;PMS_P1;PMS_P2;Temp;Humidity;BMP_temperature;BMP_pressure;BME280_temperature;BME280_humidity;BME280_pressure;Samples;Min_cycle;Max_cycle;Signal;HPM_P1;HPM_P2
2022/03/18 00:01:12;;;;;;;16.53;7.33;;;9.50;53.60;;;;;;5069904;28;20248;-88
2022/03/18 00:03:43;;;;;;;13.00;7.17;;;9.40;53.80;;;;;;5080321;28;20245;-88
2022/03/18 00:06:12;;;;;;;20.10;7.67;;;9.40;53.90;;;;;;5071265;28;20724;-88
2022/03/18 00:08:40;;;;;;;13.30;6.73;;;9.40;53.90;;;;;;5074913;28;20208;-87
2022/03/18 00:11:08;;;;;;;20.97;8.43;;;9.30;53.90;;;;;;5074192;28;20196;-88
2022/03/18 00:13:37;;;;;;;15.10;7.47;;;9.30;53.90;;;;;;5084687;28;20256;-88
2022/03/18 00:16:05;;;;;;;18.60;8.00;;;9.30;54.00;;;;;;5076436;28;20230;-87
2022/03/18 00:18:32;;;;;;;18.93;8.33;;;9.20;54.00;;;;;;5074268;28;20747;-88
2022/03/18 00:20:59;;;;;;;16.27;7.87;;;9.20;54.30;;;;;;5073307;28;20219;-88
2022/03/18 00:23:29;;;;;;;16.87;7.80;;;9.20;54.40;;;;;;5073245;28;20206;-90
2022/03/18 00:25:57;;;;;;;17.03;7.97;;;9.10;54.20;;;;;;5076609;28;20231;-88
2022/03/18 00:28:26;;;;;;;19.00;8.50;;;9.10;54.20;;;;;;5076393;28;20279;-89
2022/03/18 00:30:53;;;;;;;16.47;7.60;;;9.10;54.20;;;;;;5076822;28;20317;-88
2022/03/18 00:33:21;;;;;;;22.70;7.83;;;9.10;54.20;;;;;;5079501;28;20312;-87
2022/03/18 00:35:48;;;;;;;14.43;7.03;;;9.00;54.20;;;;;;5075535;28;20624;-87
2022/03/18 00:38:15;;;;;;;21.53;7.97;;;8.90;54.30;;;;;;5072077;28;20204;-88
2022/03/18 00:40:44;;;;;;;20.07;8.40;;;8.90;54.40;;;;;;5072576;28;21050;-87
2022/03/18 00:43:16;;;;;;;19.73;8.77;;;8.90;54.70;;;;;;5070476;28;20378;-89
2022/03/18 00:45:43;;;;;;;19.90;8.17;;;8.80;55.00;;;;;;5073517;28;20957;-89
2022/03/18 00:53:39;;;;;;;16.63;7.83;;;8.70;55.10;;;;;;5073185;28;20210;-87
2022/03/18 00:56:06;;;;;;;18.50;7.97;;;8.60;55.10;;;;;;5070683;28;20200;-88
2022/03/18 00:58:34;;;;;;;18.23;8.37;;;8.60;55.30;;;;;;5072502;28;20285;-88
2022/03/18 01:01:01;;;;;;;19.00;8.07;;;8.60;55.10;;;;;;5071551;28;20241;-88
2022/03/18 01:03:28;;;;;;;17.07;7.70;;;8.60;55.10;;;;;;5072260;28;20690;-88
2022/03/18 01:05:55;;;;;;;19.07;8.23;;;8.50;55.20;;;;;;5071882;28;20305;-88
2022/03/18 01:08:22;;;;;;;18.70;8.47;;;8.50;55.20;;;;;;5071252;28;20629;-87
2022/03/18 01:10:49;;;;;;;17.63;7.43;;;8.50;55.20;;;;;;5071864;28;20204;-88
2022/03/18 01:13:19;;;;;;;23.43;8.70;;;8.50;55.30;;;;;;5070412;28;20207;-88
2022/03/18 01:15:48;;;;;;;16.70;8.00;;;8.50;55.40;;;;;;5070616;28;20293;-87
2022/03/18 01:18:15;;;;;;;22.73;8.30;;;8.50;55.30;;;;;;5070722;28;20222;-88
2022/03/18 01:20:43;;;;;;;20.47;8.67;;;8.40;55.10;;;;;;5072888;28;20243;-89
2022/03/18 01:23:12;;;;;;;13.57;7.03;;;8.40;55.10;;;;;;5074960;28;20312;-87
2022/03/18 01:25:40;;;;;;;16.57;7.87;;;8.40;55.80;;;;;;5072341;28;20307;-87
2022/03/18 01:28:07;;;;;;;20.07;8.43;;;8.40;55.20;;;;;;5071450;28;20196;-87
2022/03/18 01:30:34;;;;;;;20.90;8.43;;;8.40;55.20;;;;;;5070036;28;20258;-88
2022/03/18 01:33:03;;;;;;;17.67;7.47;;;8.40;55.30;;;;;;5071074;28;20210;-88
2022/03/18 01:35:30;;;;;;;22.50;8.67;;;8.30;55.40;;;;;;5071414;28;20731;-87
2022/03/18 01:37:57;;;;;;;18.13;7.63;;;8.30;55.40;;;;;;5071339;28;20632;-89
2022/03/18 01:40:24;;;;;;;29.07;10.83;;;8.30;55.50;;;;;;5070435;28;20275;-87
2022/03/18 01:42:51;;;;;;;18.60;8.30;;;8.20;55.30;;;;;;5068910;28;20692;-89
2022/03/18 01:45:21;;;;;;;23.77;8.87;;;8.20;55.30;;;;;;5070641;28;20269;-88
2022/03/18 01:47:49;;;;;;;20.30;8.13;;;8.20;55.70;;;;;;5071785;28;20908;-90
2022/03/18 01:50:18;;;;;;;17.83;8.50;;;8.20;55.70;;;;;;5070620;28;20233;-88
2022/03/18 01:52:46;;;;;;;19.90;8.77;;;8.20;55.70;;;;;;5068159;28;20192;-88
2022/03/18 01:55:14;;;;;;;21.20;8.73;;;8.10;55.70;;;;;;5069468;28;20231;-87
2022/03/18 01:57:43;;;;;;;15.80;7.57;;;8.10;55.60;;;;;;5068739;28;20203;-87
2022/03/18 02:00:12;;;;;;;24.50;9.17;;;8.00;55.50;;;;;;5069120;28;20298;-87
2022/03/18 02:02:39;;;;;;;18.60;7.73;;;8.00;55.80;;;;;;5069456;28;20227;-88
2022/03/18 02:05:07;;;;;;;18.27;8.40;;;8.00;55.60;;;;;;5070370;28;20224;-87
2022/03/18 02:07:37;;;;;;;22.27;9.60;;;7.90;55.50;;;;;;5069199;28;20234;-87
2022/03/18 02:10:05;;;;;;;19.17;9.30;;;7.90;55.70;;;;;;5069625;28;21079;-88
2022/03/18 02:12:32;;;;;;;20.87;8.30;;;7.90;55.80;;;;;;5068613;28;20261;-88
2022/03/18 02:14:59;;;;;;;21.77;8.63;;;7.90;56.00;;;;;;5067372;28;20331;-88
2022/03/18 02:17:26;;;;;;;18.27;8.17;;;7.90;56.00;;;;;;5068242;28;20732;-88
2022/03/18 02:19:53;;;;;;;19.97;8.80;;;7.90;55.90;;;;;;5074628;28;20330;-88
2022/03/18 02:22:22;;;;;;;22.40;8.60;;;7.80;56.10;;;;;;5071560;28;20312;-88
2022/03/18 02:24:52;;;;;;;23.27;8.67;;;7.80;56.30;;;;;;5069158;28;20296;-89
2022/03/18 02:27:20;;;;;;;26.37;9.93;;;7.80;56.50;;;;;;5070684;28;20624;-88
2022/03/18 02:29:48;;;;;;;21.13;8.67;;;7.70;56.40;;;;;;5069576;28;20234;-87
2022/03/18 02:32:18;;;;;;;18.87;8.20;;;7.70;56.50;;;;;;5070040;28;20199;-87
2022/03/18 02:34:45;;;;;;;17.87;8.07;;;7.70;56.40;;;;;;5070640;28;20203;-87
2022/03/18 02:37:13;;;;;;;21.87;9.13;;;7.60;56.10;;;;;;5070268;28;20203;-87
2022/03/18 02:39:40;;;;;;;15.23;7.43;;;7.60;56.30;;;;;;5070738;28;20272;-87
2022/03/18 02:42:09;;;;;;;19.53;8.80;;;7.60;56.20;;;;;;5068718;28;20307;-88
2022/03/18 02:44:36;;;;;;;17.10;8.00;;;7.60;56.30;;;;;;5067633;28;20199;-88
2022/03/18 02:47:06;;;;;;;17.37;7.90;;;7.60;56.20;;;;;;5070161;28;20203;-88
2022/03/18 02:49:33;;;;;;;23.90;9.13;;;7.60;56.20;;;;;;5069239;28;20235;-89
2022/03/18 02:52:01;;;;;;;17.93;7.60;;;7.60;56.20;;;;;;5070420;28;20202;-88
2022/03/18 02:54:28;;;;;;;21.30;8.20;;;7.60;56.30;;;;;;5069572;28;20705;-87
2022/03/18 02:56:55;;;;;;;22.07;8.37;;;7.50;56.30;;;;;;5069548;28;20661;-88
2022/03/18 02:59:24;;;;;;;19.13;8.83;;;7.50;56.30;;;;;;5069019;28;20664;-87
2022/03/18 03:01:51;;;;;;;17.30;7.67;;;7.50;56.40;;;;;;5069469;28;20221;-89
2022/03/18 03:04:18;;;;;;;19.70;8.53;;;7.50;56.50;;;;;;5071634;28;20230;-89
2022/03/18 03:09:30;;;;;;;18.30;7.70;;;7.50;56.70;;;;;;5068900;28;20212;-88
2022/03/18 03:11:57;;;;;;;17.67;7.43;;;7.40;56.70;;;;;;5067003;28;20286;-88
2022/03/18 03:14:26;;;;;;;17.47;8.00;;;7.40;56.90;;;;;;5071658;28;20211;-88
2022/03/18 03:16:55;;;;;;;15.47;7.27;;;7.40;57.00;;;;;;5073731;28;20302;-87
2022/03/18 03:19:23;;;;;;;23.57;9.30;;;7.30;57.10;;;;;;5069903;28;20236;-88
2022/03/18 03:21:50;;;;;;;19.47;8.03;;;7.30;57.10;;;;;;5071141;28;20257;-88
2022/03/18 03:24:17;;;;;;;18.67;8.60;;;7.30;57.00;;;;;;5070427;28;20719;-88
2022/03/18 03:26:44;;;;;;;20.37;8.70;;;7.30;56.90;;;;;;5069733;28;20641;-87
2022/03/18 03:29:12;;;;;;;16.73;7.93;;;7.30;56.60;;;;;;5069228;28;20315;-88
2022/03/18 03:31:40;;;;;;;15.20;7.73;;;7.20;56.60;;;;;;5069986;28;20227;-87
2022/03/18 03:34:09;;;;;;;15.87;7.87;;;7.30;57.10;;;;;;5069893;28;20255;-89
2022/03/18 03:36:36;;;;;;;15.30;6.70;;;7.30;57.00;;;;;;5069344;28;20282;-88
2022/03/18 03:39:05;;;;;;;15.90;7.60;;;7.20;56.80;;;;;;5069480;28;20201;-88
2022/03/18 03:41:34;;;;;;;23.97;9.73;;;7.20;57.50;;;;;;5071948;28;20231;-89
2022/03/18 03:44:02;;;;;;;12.43;6.80;;;7.20;57.20;;;;;;5074581;28;20214;-88
2022/03/18 03:46:33;;;;;;;22.30;8.90;;;7.20;57.20;;;;;;5067185;28;20726;-88
2022/03/18 03:49:02;;;;;;;15.77;7.37;;;7.20;57.20;;;;;;5072941;28;20249;-88
2022/03/18 03:51:29;;;;;;;16.37;7.73;;;7.10;57.10;;;;;;5073644;28;20294;-87
2022/03/18 03:53:56;;;;;;;15.63;7.27;;;7.20;57.30;;;;;;5080163;28;20255;-88
2022/03/18 03:56:23;;;;;;;15.67;7.40;;;7.10;57.10;;;;;;5085832;28;20210;-87
2022/03/18 03:58:50;;;;;;;19.77;7.63;;;7.10;57.10;;;;;;5062001;28;20218;-88
2022/03/18 04:01:21;;;;;;;20.73;8.50;;;7.10;57.30;;;;;;5074095;28;20205;-87
2022/03/18 04:03:50;;;;;;;15.80;7.77;;;7.10;57.50;;;;;;5072612;28;20239;-87
2022/03/18 04:06:18;;;;;;;19.53;8.37;;;7.10;57.40;;;;;;5072477;28;20196;-88
2022/03/18 04:08:45;;;;;;;17.03;7.43;;;7.10;57.40;;;;;;5072366;28;20276;-88
2022/03/18 04:11:12;;;;;;;19.43;8.13;;;7.10;57.50;;;;;;5071955;28;20278;-87
2022/03/18 04:13:40;;;;;;;16.13;7.00;;;7.00;57.40;;;;;;5069569;28;20220;-87
2022/03/18 04:16:08;;;;;;;23.83;8.90;;;7.00;57.40;;;;;;5071553;28;20326;-87
2022/03/18 04:18:35;;;;;;;18.37;7.57;;;7.00;57.40;;;;;;5072128;28;20199;-88
2022/03/18 04:21:02;;;;;;;19.87;8.37;;;7.00;57.40;;;;;;5072355;28;20224;-88
2022/03/18 04:23:32;;;;;;;23.17;8.97;;;7.00;57.60;;;;;;5071669;28;21032;-88
2022/03/18 04:25:59;;;;;;;14.27;6.80;;;7.00;57.70;;;;;;5072383;28;20268;-88
2022/03/18 04:28:26;;;;;;;21.80;8.50;;;7.00;57.60;;;;;;5070433;28;20256;-88
2022/03/18 04:30:53;;;;;;;17.40;8.00;;;7.00;57.60;;;;;;5072184;28;20289;-88
2022/03/18 04:33:20;;;;;;;17.87;7.87;;;7.00;57.70;;;;;;5072686;28;20194;-88
2022/03/18 04:35:47;;;;;;;18.20;8.33;;;6.90;58.00;;;;;;5072947;28;20201;-88
2022/03/18 04:38:16;;;;;;;18.07;7.50;;;6.90;58.10;;;;;;5071373;28;20671;-88
2022/03/18 04:40:44;;;;;;;22.17;8.97;;;6.90;58.10;;;;;;5063383;28;20223;-88
2022/03/18 04:43:12;;;;;;;18.10;7.23;;;6.90;58.00;;;;;;5070992;28;20229;-88
2022/03/18 04:45:39;;;;;;;21.80;8.33;;;6.80;58.00;;;;;;5071514;28;20201;-87
2022/03/18 04:48:10;;;;;;;19.90;7.83;;;6.80;58.00;;;;;;5071465;28;20199;-88
2022/03/18 04:50:37;;;;;;;16.00;7.23;;;6.80;58.00;;;;;;5071782;28;20207;-88
2022/03/18 04:53:04;;;;;;;16.63;7.13;;;6.80;58.00;;;;;;5075446;28;20211;-87
2022/03/18 04:55:31;;;;;;;16.63;7.00;;;6.80;58.10;;;;;;5073939;28;20586;-88
2022/03/18 04:57:59;;;;;;;17.27;6.87;;;6.70;58.10;;;;;;5073057;28;20947;-88
2022/03/18 05:00:26;;;;;;;16.30;7.10;;;6.70;58.20;;;;;;5070762;28;20299;-88
2022/03/18 05:02:55;;;;;;;18.73;8.17;;;6.70;58.10;;;;;;5072705;28;20302;-88
2022/03/18 05:05:22;;;;;;;16.60;7.00;;;6.70;58.20;;;;;;5071356;28;20234;-88
2022/03/18 05:07:50;;;;;;;16.37;6.97;;;6.70;58.30;;;;;;5072503;28;20661;-88
2022/03/18 05:10:18;;;;;;;19.17;7.97;;;6.60;58.30;;;;;;5072014;28;20583;-88
2022/03/18 05:12:46;;;;;;;17.83;7.73;;;6.60;58.40;;;;;;5071919;28;20261;-88
2022/03/18 05:15:16;;;;;;;20.00;8.47;;;6.60;58.50;;;;;;5071605;28;20302;-88
2022/03/18 05:17:50;;;;;;;16.93;7.43;;;6.60;58.60;;;;;;5072582;28;20280;-89
2022/03/18 05:20:18;;;;;;;13.07;6.33;;;6.60;58.80;;;;;;5069785;28;20199;-88
2022/03/18 05:22:45;;;;;;;16.33;6.97;;;6.50;58.60;;;;;;5070425;28;20226;-88
2022/03/18 05:25:12;;;;;;;18.43;7.30;;;6.50;58.50;;;;;;5070409;28;20206;-88
2022/03/18 05:27:40;;;;;;;17.43;7.13;;;6.50;58.50;;;;;;5070348;28;20188;-89
2022/03/18 05:30:09;;;;;;;18.13;7.30;;;6.50;58.70;;;;;;5069950;28;20203;-89
2022/03/18 05:32:41;;;;;;;21.20;8.17;;;6.40;58.90;;;;;;5063493;28;20184;-89
2022/03/18 05:35:10;;;;;;;19.77;8.53;;;6.40;59.20;;;;;;5069801;28;20211;-88
2022/03/18 05:37:38;;;;;;;18.60;7.63;;;6.40;59.30;;;;;;5062497;28;20230;-88
2022/03/18 05:40:06;;;;;;;14.23;7.57;;;6.40;59.20;;;;;;5059482;28;20293;-88
2022/03/18 05:42:33;;;;;;;20.57;8.03;;;6.30;59.20;;;;;;5071596;28;20298;-88
2022/03/18 05:45:05;;;;;;;18.37;7.67;;;6.30;59.20;;;;;;5070584;28;20296;-88
2022/03/18 05:47:34;;;;;;;27.53;10.10;;;6.30;59.40;;;;;;5066856;28;20207;-89
2022/03/18 05:50:05;;;;;;;15.30;6.97;;;6.30;59.20;;;;;;5078844;28;20198;-88
2022/03/18 05:52:32;;;;;;;18.00;7.70;;;6.30;59.10;;;;;;5065502;28;20197;-90
2022/03/18 05:55:00;;;;;;;16.93;7.43;;;6.20;58.90;;;;;;5066033;28;21055;-88
2022/03/18 05:57:26;;;;;;;21.17;8.17;;;6.30;59.20;;;;;;5067458;28;20217;-88
2022/03/18 05:59:54;;;;;;;24.03;9.17;;;6.20;59.30;;;;;;5065262;28;20598;-88
2022/03/18 06:02:22;;;;;;;20.57;7.13;;;6.20;59.50;;;;;;5062328;28;20207;-88
2022/03/18 06:04:49;;;;;;;20.60;8.70;;;6.20;59.40;;;;;;5066616;28;20254;-88
2022/03/18 06:07:18;;;;;;;36.77;12.07;;;6.20;59.40;;;;;;5065261;28;20195;-88
2022/03/18 06:12:30;;;;;;;14.67;6.80;;;6.10;59.30;;;;;;5069453;28;20575;-88
2022/03/18 06:14:57;;;;;;;18.10;7.30;;;6.10;59.40;;;;;;5069904;28;20315;-88
2022/03/18 06:17:24;;;;;;;18.80;7.80;;;6.10;59.70;;;;;;5069126;28;20697;-89
2022/03/18 06:19:51;;;;;;;20.57;7.53;;;6.10;59.80;;;;;;5069850;28;20714;-88
2022/03/18 06:22:20;;;;;;;16.83;7.20;;;6.10;59.70;;;;;;5067118;28;20210;-88
2022/03/18 06:24:48;;;;;;;18.23;7.27;;;6.10;59.80;;;;;;5068972;28;20230;-87
2022/03/18 06:27:15;;;;;;;32.87;10.20;;;6.10;60.40;;;;;;5067347;28;20186;-88
2022/03/18 06:29:43;;;;;;;16.30;6.67;;;6.10;59.70;;;;;;5064700;28;20263;-88
2022/03/18 06:32:11;;;;;;;15.20;6.70;;;6.10;59.80;;;;;;5069774;28;20231;-88
2022/03/18 06:34:38;;;;;;;19.37;8.00;;;6.00;59.70;;;;;;5066556;28;20234;-89
2022/03/18 06:37:05;;;;;;;19.50;7.50;;;6.10;59.80;;;;;;5067142;28;20209;-88
2022/03/18 06:39:34;;;;;;;21.20;7.33;;;6.00;59.90;;;;;;5067389;28;20289;-89
2022/03/18 06:42:07;;;;;;;12.00;6.20;;;6.00;60.20;;;;;;5064650;28;20717;-88
2022/03/18 06:44:35;;;;;;;17.50;7.17;;;6.00;60.50;;;;;;5070942;28;20235;-88
2022/03/18 06:47:04;;;;;;;16.90;6.97;;;6.00;60.50;;;;;;5074159;28;20239;-89
2022/03/18 06:49:31;;;;;;;19.27;7.70;;;6.00;60.70;;;;;;5074516;28;20266;-89
2022/03/18 06:51:59;;;;;;;15.87;6.83;;;6.00;60.80;;;;;;5071774;28;20337;-88
2022/03/18 06:54:26;;;;;;;20.37;7.87;;;6.00;60.80;;;;;;5071842;28;20206;-88
2022/03/18 06:56:56;;;;;;;17.93;6.80;;;6.10;61.00;;;;;;5071299;28;20281;-88
2022/03/18 06:59:32;;;;;;;13.50;6.20;;;6.10;61.40;;;;;;5075008;28;20274;-90
2022/03/18 07:02:01;;;;;;;14.73;8.03;;;6.10;61.30;;;;;;5073932;28;20866;-89
2022/03/18 07:04:28;;;;;;;25.37;10.90;;;6.10;61.40;;;;;;5075269;28;20240;-89
2022/03/18 07:06:57;;;;;;;18.40;10.43;;;6.10;61.50;;;;;;5081555;28;20224;-89
2022/03/18 07:09:28;;;;;;;15.40;9.73;;;6.20;61.80;;;;;;5080423;28;20207;-89
2022/03/18 07:11:57;;;;;;;20.30;10.83;;;6.20;62.40;;;;;;5078399;28;20190;-88
2022/03/18 07:14:26;;;;;;;15.07;10.40;;;6.20;62.60;;;;;;5066769;28;20282;-89
2022/03/18 07:19:52;;;;;;;15.83;8.07;;;6.30;62.80;;;;;;5058008;28;20248;-89
2022/03/18 07:22:22;;;;;;;14.60;7.53;;;6.40;63.10;;;;;;5058518;28;20286;-89
2022/03/18 07:24:48;;;;;;;17.93;7.90;;;6.50;63.30;;;;;;5056713;28;20280;-89
2022/03/18 07:27:19;;;;;;;20.27;8.63;;;6.50;63.60;;;;;;5060703;28;20282;-88
2022/03/18 07:29:47;;;;;;;17.03;8.43;;;6.60;63.90;;;;;;5065835;28;20186;-88
2022/03/18 07:32:18;;;;;;;12.47;7.63;;;6.70;63.40;;;;;;5056077;28;20258;-89
2022/03/18 07:34:45;;;;;;;16.00;8.30;;;6.80;63.60;;;;;;5057369;28;20552;-89
2022/03/18 07:37:13;;;;;;;15.77;8.40;;;6.80;63.60;;;;;;5054960;28;20224;-88
2022/03/18 07:39:42;;;;;;;21.10;9.17;;;6.90;64.90;;;;;;5055523;28;20223;-88
2022/03/18 07:42:09;;;;;;;22.33;8.80;;;7.00;64.90;;;;;;5069180;28;20200;-88
2022/03/18 07:44:58;;;;;;;16.37;8.10;;;7.10;64.00;;;;;;5058046;28;20234;-89
2022/03/18 07:47:27;;;;;;;16.80;8.33;;;7.20;64.40;;;;;;5074237;28;20298;-88
2022/03/18 07:49:56;;;;;;;17.77;9.10;;;7.30;63.70;;;;;;5071797;28;20948;-89
2022/03/18 07:52:36;;;;;;;15.73;8.57;;;7.30;63.40;;;;;;5075241;28;20191;-89
2022/03/18 07:55:04;;;;;;;17.07;9.03;;;7.50;64.10;;;;;;5076250;28;20199;-89
2022/03/18 07:57:38;;;;;;;14.93;7.60;;;7.60;63.60;;;;;;5081386;28;20210;-89
2022/03/18 08:00:11;;;;;;;18.30;8.17;;;7.70;63.90;;;;;;5080241;28;20204;-88
2022/03/18 08:02:42;;;;;;;18.07;7.60;;;7.80;64.00;;;;;;5081542;28;20262;-89
2022/03/18 08:05:19;;;;;;;19.83;8.43;;;7.90;63.90;;;;;;5065383;28;20251;-89
2022/03/18 08:07:48;;;;;;;21.43;7.80;;;8.10;64.10;;;;;;5085250;28;20195;-89
2022/03/18 08:10:24;;;;;;;16.07;7.30;;;8.10;63.50;;;;;;5072112;28;20200;-89
2022/03/18 08:12:51;;;;;;;15.47;7.17;;;8.30;63.90;;;;;;5058435;28;20611;-89
2022/03/18 08:15:29;;;;;;;25.97;8.43;;;8.40;63.50;;;;;;5058300;28;20215;-90
2022/03/18 08:17:58;;;;;;;22.03;8.00;;;8.50;64.00;;;;;;5056234;28;20208;-89
2022/03/18 08:20:27;;;;;;;17.20;7.67;;;8.60;63.70;;;;;;5077839;28;20195;-89
2022/03/18 08:22:55;;;;;;;15.30;6.93;;;8.70;63.60;;;;;;5074115;28;20683;-90
2022/03/18 08:25:26;;;;;;;18.93;7.17;;;8.90;63.50;;;;;;5069027;28;20763;-90
2022/03/18 08:27:53;;;;;;;13.37;5.93;;;9.00;63.60;;;;;;5076111;28;20213;-89
2022/03/18 08:30:32;;;;;;;14.17;6.07;;;9.10;63.30;;;;;;5078242;28;20250;-90
2022/03/18 08:33:01;;;;;;;11.60;5.93;;;9.30;63.30;;;;;;5078009;28;20212;-90
2022/03/18 08:35:29;;;;;;;14.30;6.30;;;9.40;62.90;;;;;;5073079;28;20350;-90
2022/03/18 08:38:07;;;;;;;14.03;7.43;;;9.50;62.70;;;;;;5082911;28;20184;-90
2022/03/18 08:40:38;;;;;;;17.63;7.33;;;9.70;62.90;;;;;;5079557;28;20257;-90
2022/03/18 08:43:09;;;;;;;13.90;7.00;;;9.80;62.70;;;;;;5073809;28;20224;-90
2022/03/18 08:45:40;;;;;;;14.70;6.73;;;10.00;62.50;;;;;;5072097;28;20227;-91
2022/03/18 08:48:07;;;;;;;12.80;6.97;;;10.10;61.60;;;;;;5067265;28;20204;-90
2022/03/18 08:50:47;;;;;;;12.17;6.03;;;10.30;61.50;;;;;;5078421;28;20207;-90
2022/03/18 08:53:19;;;;;;;9.07;5.07;;;10.50;61.20;;;;;;5087753;28;20196;-90
2022/03/18 08:55:47;;;;;;;14.53;6.53;;;10.70;61.40;;;;;;5079454;28;20211;-92
2022/03/18 08:58:27;;;;;;;15.33;6.57;;;11.00;61.50;;;;;;5079877;28;20972;-93
2022/03/18 09:01:02;;;;;;;13.83;7.50;;;11.30;61.40;;;;;;5078265;28;20203;-91
2022/03/18 09:03:28;;;;;;;12.10;6.40;;;11.60;60.90;;;;;;5068925;28;20692;-90
2022/03/18 09:05:56;;;;;;;16.87;7.37;;;11.80;60.60;;;;;;5073299;28;20291;-91
2022/03/18 09:08:24;;;;;;;14.47;7.00;;;12.20;60.10;;;;;;5072191;28;20214;-91
2022/03/18 09:10:51;;;;;;;11.67;5.57;;;12.50;59.60;;;;;;5092288;28;20249;-91
2022/03/18 09:13:37;;;;;;;16.10;7.00;;;12.80;59.40;;;;;;5074369;28;20287;-92
2022/03/18 09:16:12;;;;;;;13.83;6.13;;;13.20;58.80;;;;;;5076108;28;20236;-89
2022/03/18 09:18:39;;;;;;;15.23;6.00;;;13.60;58.60;;;;;;5069399;28;20647;-88
2022/03/18 09:21:09;;;;;;;16.77;7.00;;;13.80;58.20;;;;;;5072791;28;20207;-89
2022/03/18 09:23:36;;;;;;;14.60;6.50;;;14.20;57.80;;;;;;5069528;28;20256;-89
2022/03/18 09:26:03;;;;;;;11.00;5.33;;;14.40;57.60;;;;;;5083129;28;20260;-90
2022/03/18 09:28:32;;;;;;;15.20;5.77;;;14.80;57.60;;;;;;5071480;28;20625;-90
2022/03/18 09:30:59;;;;;;;11.73;4.90;;;15.00;56.30;;;;;;5083997;28;20204;-89
2022/03/18 09:33:30;;;;;;;10.67;5.03;;;15.40;56.30;;;;;;5071723;28;20643;-90
2022/03/18 09:35:57;;;;;;;13.83;5.93;;;15.60;55.20;;;;;;5069148;28;20196;-89
2022/03/18 09:38:32;;;;;;;13.77;6.23;;;15.90;55.20;;;;;;5071544;28;20222;-89
2022/03/18 09:40:58;;;;;;;12.10;5.53;;;16.20;55.30;;;;;;5070750;28;21385;-89
2022/03/18 09:43:36;;;;;;;12.80;6.13;;;16.40;54.60;;;;;;5073186;28;20183;-90
2022/03/18 09:46:05;;;;;;;12.40;6.00;;;16.70;53.60;;;;;;5073739;28;20258;-90
2022/03/18 09:48:37;;;;;;;12.70;6.17;;;16.90;54.00;;;;;;5070872;28;20198;-89
2022/03/18 09:51:19;;;;;;;13.80;6.23;;;17.20;53.40;;;;;;5072512;28;20199;-91
2022/03/18 09:53:59;;;;;;;10.10;5.27;;;17.40;53.30;;;;;;5096201;28;20226;-90
2022/03/18 09:56:29;;;;;;;11.37;5.33;;;17.60;52.60;;;;;;5095329;28;20229;-89
2022/03/18 09:58:56;;;;;;;11.60;5.30;;;17.80;52.40;;;;;;5094603;28;20625;-93
2022/03/18 10:01:36;;;;;;;14.43;5.73;;;18.00;52.60;;;;;;5095874;28;20231;-89
2022/03/18 10:04:08;;;;;;;7.50;4.60;;;18.20;51.30;;;;;;5095622;28;20223;-94
2022/03/18 10:06:36;;;;;;;11.33;5.07;;;18.40;51.50;;;;;;5095534;28;20205;-94
2022/03/18 10:09:09;;;;;;;9.20;5.00;;;18.60;51.50;;;;;;5097233;28;20185;-91
2022/03/18 10:11:43;;;;;;;8.23;4.10;;;18.70;51.00;;;;;;5094684;28;20216;-91
2022/03/18 10:14:24;;;;;;;13.13;4.87;;;18.90;51.60;;;;;;5082909;28;20211;-90
2022/03/18 10:16:56;;;;;;;9.03;4.77;;;19.10;50.70;;;;;;5077770;28;20192;-89
2022/03/18 10:19:25;;;;;;;15.20;4.77;;;19.30;50.80;;;;;;5076070;28;20279;-90
2022/03/18 10:21:54;;;;;;;12.40;5.20;;;19.40;50.00;;;;;;5077399;28;20643;-89
2022/03/18 10:24:27;;;;;;;16.53;5.17;;;19.50;49.90;;;;;;5064560;28;20230;-90
2022/03/18 10:27:11;;;;;;;10.80;4.87;;;19.70;49.10;;;;;;5073091;28;20215;-89
2022/03/18 10:29:42;;;;;;;11.07;5.30;;;19.80;48.20;;;;;;5073852;28;20221;-89
2022/03/18 10:32:09;;;;;;;12.97;5.47;;;20.00;48.90;;;;;;5072227;28;20701;-89
2022/03/18 10:37:25;;;;;;;12.93;4.83;;;20.20;48.90;;;;;;5067455;28;20246;-89
2022/03/18 10:40:00;;;;;;;7.43;3.17;;;20.40;48.50;;;;;;5070346;28;20203;-92
2022/03/18 10:42:29;;;;;;;10.13;4.50;;;20.50;47.50;;;;;;5052518;28;20208;-88
2022/03/18 10:44:57;;;;;;;11.13;4.53;;;20.60;47.60;;;;;;5065612;28;20230;-89
2022/03/18 10:47:30;;;;;;;7.77;3.90;;;20.70;47.30;;;;;;5072038;28;20239;-90
2022/03/18 10:50:23;;;;;;;8.33;3.30;;;20.80;46.50;;;;;;5074769;28;20314;-90
2022/03/18 10:53:10;;;;;;;11.77;4.40;;;20.90;46.00;;;;;;5074470;28;20317;-90
2022/03/18 10:55:40;;;;;;;10.77;4.67;;;21.00;45.40;;;;;;5074417;28;20184;-90
2022/03/18 10:58:11;;;;;;;9.77;4.53;;;21.00;45.90;;;;;;5073715;28;20203;-90
2022/03/18 11:00:43;;;;;;;10.53;4.00;;;21.10;45.60;;;;;;5072355;28;20710;-90
2022/03/18 11:03:11;;;;;;;12.70;4.87;;;21.20;45.80;;;;;;5070283;28;20254;-90
2022/03/18 11:05:41;;;;;;;11.43;4.63;;;21.20;45.80;;;;;;5068859;28;20227;-90
2022/03/18 11:08:13;;;;;;;12.17;4.57;;;21.20;45.30;;;;;;5067382;28;20667;-90
2022/03/18 11:13:29;;;;;;;13.90;5.30;;;21.40;45.70;;;;;;5070080;28;20210;-90
2022/03/18 11:15:58;;;;;;;11.63;4.60;;;21.40;46.00;;;;;;5064378;28;20223;-90
2022/03/18 11:18:29;;;;;;;8.53;3.97;;;21.50;46.10;;;;;;5066575;28;20656;-90
2022/03/18 11:21:03;;;;;;;9.53;4.10;;;21.60;45.70;;;;;;5076826;28;20222;-91
2022/03/18 11:23:35;;;;;;;10.07;4.00;;;21.70;45.20;;;;;;5075005;28;20203;-90
2022/03/18 11:26:08;;;;;;;6.17;3.10;;;21.80;44.80;;;;;;5072418;28;20302;-90
2022/03/18 11:28:37;;;;;;;10.43;4.73;;;21.90;45.40;;;;;;5073021;28;20585;-90
2022/03/18 11:31:06;;;;;;;8.10;4.23;;;22.00;44.40;;;;;;5070313;28;20199;-90
2022/03/18 11:33:37;;;;;;;9.47;4.03;;;22.10;44.10;;;;;;5068885;28;20210;-90
2022/03/18 11:36:11;;;;;;;7.63;3.60;;;22.10;44.30;;;;;;5068929;28;20198;-90
2022/03/18 11:38:57;;;;;;;8.30;3.77;;;22.20;43.20;;;;;;5068608;28;20187;-91
2022/03/18 11:41:28;;;;;;;14.23;4.00;;;22.30;43.00;;;;;;5065291;28;20317;-91
2022/03/18 11:43:56;;;;;;;10.70;4.27;;;22.30;43.90;;;;;;5067867;28;20202;-90
2022/03/18 11:46:25;;;;;;;10.10;4.50;;;22.40;44.00;;;;;;5068805;28;20242;-89
2022/03/18 11:49:05;;;;;;;8.53;3.23;;;22.50;43.70;;;;;;5065740;28;20231;-91
2022/03/18 11:51:44;;;;;;;9.87;4.17;;;22.60;43.30;;;;;;5067800;28;20203;-90
2022/03/18 11:54:16;;;;;;;11.03;4.57;;;22.70;42.70;;;;;;5054428;28;20258;-90
2022/03/18 11:56:45;;;;;;;14.17;5.23;;;22.70;43.50;;;;;;5068317;28;20215;-89
2022/03/18 11:59:38;;;;;;;9.37;4.47;;;22.80;42.70;;;;;;5069559;28;20311;-90
2022/03/18 12:02:06;;;;;;;10.37;5.03;;;22.90;42.40;;;;;;5070435;28;20223;-90
2022/03/18 12:04:42;;;;;;;10.10;4.23;;;22.90;43.00;;;;;;5073867;28;20639;-91
2022/03/18 12:07:28;;;;;;;9.13;3.60;;;23.00;42.50;;;;;;5074649;28;20199;-92
2022/03/18 12:09:57;;;;;;;7.23;3.33;;;23.00;42.60;;;;;;5069560;28;20213;-92
2022/03/18 12:12:38;;;;;;;9.77;5.10;;;23.10;43.00;;;;;;5069488;28;20215;-90
2022/03/18 12:15:10;;;;;;;16.93;6.60;;;23.20;41.40;;;;;;5068920;28;20207;-90
2022/03/18 12:17:43;;;;;;;9.97;4.83;;;23.20;42.10;;;;;;5073543;28;20223;-90
2022/03/18 12:20:18;;;;;;;11.23;5.53;;;23.30;41.60;;;;;;5060004;28;20251;-89
2022/03/18 12:23:09;;;;;;;10.23;4.67;;;23.30;41.40;;;;;;5067541;28;20219;-88
2022/03/18 12:25:40;;;;;;;17.60;6.67;;;23.40;40.10;;;;;;5063889;28;20317;-89
2022/03/18 12:28:09;;;;;;;11.63;5.47;;;23.40;40.10;;;;;;5053933;28;20286;-91
2022/03/18 12:30:38;;;;;;;13.93;5.27;;;23.30;40.60;;;;;;5072899;28;20211;-89
2022/03/18 12:33:08;;;;;;;9.30;4.73;;;23.30;40.00;;;;;;5070836;28;20264;-90
2022/03/18 12:35:37;;;;;;;12.13;5.27;;;23.30;39.30;;;;;;5053788;28;20334;-89
2022/03/18 12:38:10;;;;;;;10.53;4.60;;;23.20;40.00;;;;;;5055087;28;20203;-89
2022/03/18 12:40:40;;;;;;;17.07;5.97;;;23.10;39.10;;;;;;5066248;28;20206;-89
2022/03/18 12:43:10;;;;;;;12.23;5.00;;;23.00;39.50;;;;;;5052530;28;20207;-89
2022/03/18 12:45:38;;;;;;;11.87;5.33;;;23.00;39.60;;;;;;5056909;28;20280;-90
2022/03/18 12:48:07;;;;;;;14.33;5.83;;;22.90;39.70;;;;;;5069005;28;20552;-91
2022/03/18 12:50:36;;;;;;;12.40;4.83;;;22.90;39.70;;;;;;5052634;28;20274;-89
2022/03/18 12:53:14;;;;;;;10.70;4.90;;;22.80;39.60;;;;;;5052643;28;20260;-89
2022/03/18 12:55:51;;;;;;;11.07;4.80;;;22.80;39.60;;;;;;5056160;28;20199;-88
2022/03/18 12:58:23;;;;;;;11.93;4.97;;;22.80;39.60;;;;;;5071413;28;20211;-88
2022/03/18 13:00:55;;;;;;;10.27;4.57;;;22.80;39.60;;;;;;5066471;28;20246;-89
2022/03/18 13:03:27;;;;;;;12.87;5.07;;;22.80;39.70;;;;;;5059869;28;20199;-89
2022/03/18 13:05:57;;;;;;;11.47;4.97;;;22.80;39.70;;;;;;5070517;28;20288;-90
2022/03/18 13:08:32;;;;;;;11.20;5.27;;;22.80;39.30;;;;;;5053162;28;20212;-88
2022/03/18 13:11:02;;;;;;;9.57;4.53;;;22.70;39.10;;;;;;5062487;28;20215;-89
2022/03/18 13:13:30;;;;;;;7.83;4.10;;;22.80;39.60;;;;;;5070838;28;21070;-89
2022/03/18 13:16:01;;;;;;;10.97;4.53;;;22.70;39.60;;;;;;5069930;28;20207;-88